createdAt,value
2018-07-17T00:02:00.300Z,1.73
2018-07-17T00:04:32.055Z,3.00
2018-07-17T00:07:03.580Z,2.47
2018-07-17T00:09:34.956Z,3.17
2018-07-17T00:12:07.057Z,2.50
2018-07-17T00:14:39.189Z,2.23
2018-07-17T00:17:11.279Z,1.73
2018-07-17T00:19:43.254Z,2.03
2018-07-17T00:22:15.465Z,2.60
2018-07-17T00:24:47.057Z,1.70
2018-07-17T00:27:18.834Z,3.13
2018-07-17T00:29:50.523Z,1.93
2018-07-17T00:32:22.174Z,3.37
2018-07-17T00:34:54.217Z,2.80
2018-07-17T00:37:25.972Z,1.70
2018-07-17T00:39:57.615Z,2.27
2018-07-17T00:42:29.280Z,3.17
2018-07-17T00:45:01.090Z,2.40
2018-07-17T00:47:32.733Z,5.73
2018-07-17T00:50:04.536Z,2.00
2018-07-17T00:52:36.338Z,3.33
2018-07-17T00:55:08.332Z,3.07
2018-07-17T00:57:39.965Z,2.00
2018-07-17T01:00:11.887Z,2.60
2018-07-17T01:02:49.129Z,3.07
2018-07-17T01:05:25.764Z,2.37
2018-07-17T01:08:02.458Z,2.83
2018-07-17T01:10:39.803Z,2.30
2018-07-17T01:13:15.362Z,2.27
2018-07-17T01:15:47.122Z,1.77
2018-07-17T01:18:19.043Z,1.87
2018-07-17T01:20:50.774Z,1.83
2018-07-17T01:23:23.106Z,2.03
2018-07-17T01:25:55.114Z,5.43
2018-07-17T01:28:26.634Z,1.47
2018-07-17T01:30:58.586Z,2.37
2018-07-17T01:33:30.367Z,2.73
2018-07-17T01:36:01.965Z,3.40
2018-07-17T01:38:33.657Z,7.23
2018-07-17T01:41:05.552Z,2.23
2018-07-17T01:43:37.102Z,2.90
2018-07-17T01:46:08.822Z,3.07
2018-07-17T01:48:43.527Z,3.30
2018-07-17T01:51:15.086Z,1.93
2018-07-17T01:53:46.532Z,3.33
2018-07-17T01:56:18.116Z,2.70
2018-07-17T01:58:49.672Z,3.40
2018-07-17T02:01:21.405Z,3.10
2018-07-17T02:03:52.724Z,2.73
2018-07-17T02:06:24.103Z,2.57
2018-07-17T02:08:55.790Z,3.17
2018-07-17T02:11:27.444Z,3.10
2018-07-17T02:13:59.164Z,1.87
2018-07-17T02:16:30.833Z,2.03
2018-07-17T02:19:02.958Z,2.93
2018-07-17T02:21:34.952Z,3.10
2018-07-17T02:24:06.647Z,2.03
2018-07-17T02:26:38.305Z,1.80
2018-07-17T02:29:09.937Z,2.67
2018-07-17T02:31:41.282Z,1.93
2018-07-17T02:34:13.021Z,2.03
2018-07-17T02:36:44.731Z,2.60
2018-07-17T02:39:16.547Z,3.40
2018-07-17T02:41:48.091Z,2.30
2018-07-17T02:44:19.721Z,5.40
2018-07-17T02:46:51.283Z,2.23
2018-07-17T02:49:22.794Z,2.47
2018-07-17T02:51:54.346Z,2.27
2018-07-17T02:54:25.910Z,2.47
2018-07-17T02:56:57.469Z,3.40
2018-07-17T02:59:29.190Z,2.40
2018-07-17T03:02:00.724Z,2.23
2018-07-17T03:04:32.269Z,2.07
2018-07-17T03:07:04.298Z,3.33
2018-07-17T03:09:35.982Z,2.13
2018-07-17T03:12:07.658Z,3.03
2018-07-17T03:14:39.314Z,2.53
2018-07-17T03:17:10.881Z,2.03
2018-07-17T03:19:42.899Z,2.30
2018-07-17T03:22:14.349Z,3.53
2018-07-17T03:24:46.484Z,2.50
2018-07-17T03:27:17.941Z,2.53
2018-07-17T03:29:49.400Z,2.10
2018-07-17T03:32:22.081Z,2.33
2018-07-17T03:34:53.804Z,3.23
2018-07-17T03:37:25.388Z,2.00
2018-07-17T03:39:56.482Z,1.87
2018-07-17T03:42:27.965Z,2.37
2018-07-17T03:44:59.458Z,2.23
2018-07-17T03:47:30.933Z,2.53
2018-07-17T03:50:02.715Z,2.10
2018-07-17T03:52:34.713Z,3.23
2018-07-17T03:55:06.901Z,3.00
2018-07-17T03:57:38.668Z,3.00
2018-07-17T04:00:10.239Z,2.27
2018-07-17T04:02:41.800Z,3.03
2018-07-17T04:05:13.464Z,2.50
2018-07-17T04:07:45.080Z,2.20
2018-07-17T04:10:17.036Z,2.97
2018-07-17T04:12:48.513Z,2.40
2018-07-17T04:15:19.935Z,2.50
2018-07-17T04:17:51.957Z,3.50
2018-07-17T04:20:23.635Z,2.80
2018-07-17T04:22:55.180Z,2.50
2018-07-17T04:25:26.611Z,2.27
2018-07-17T04:27:58.412Z,2.63
2018-07-17T04:30:29.952Z,2.10
2018-07-17T04:33:01.407Z,4.80
2018-07-17T04:35:32.982Z,3.53
2018-07-17T04:38:04.553Z,3.00
2018-07-17T04:40:35.981Z,2.60
2018-07-17T04:43:07.545Z,2.70
2018-07-17T04:45:38.968Z,2.47
2018-07-17T04:48:10.594Z,2.67
2018-07-17T04:50:42.097Z,3.33
2018-07-17T04:53:13.582Z,3.27
2018-07-17T04:55:45.067Z,4.60
2018-07-17T04:58:16.597Z,2.80
2018-07-17T05:00:48.197Z,3.43
2018-07-17T05:03:19.869Z,4.03
2018-07-17T05:05:51.355Z,4.00
2018-07-17T05:08:22.805Z,3.20
2018-07-17T05:10:54.299Z,6.30
2018-07-17T05:13:26.142Z,4.77
2018-07-17T05:15:57.780Z,4.07
2018-07-17T05:18:29.585Z,3.53
2018-07-17T05:21:00.993Z,6.37
2018-07-17T05:23:32.617Z,4.27
2018-07-17T05:26:04.554Z,2.90
2018-07-17T05:28:36.070Z,5.67
2018-07-17T05:31:07.897Z,4.97
2018-07-17T05:33:39.414Z,4.87
2018-07-17T05:36:11.486Z,4.80
2018-07-17T05:38:43.446Z,4.50
2018-07-17T05:41:15.622Z,6.40
2018-07-17T05:43:47.245Z,4.77
2018-07-17T05:46:18.913Z,5.10
2018-07-17T05:48:50.765Z,4.40
2018-07-17T05:51:22.127Z,6.83
2018-07-17T05:53:53.368Z,5.60
2018-07-17T05:56:25.096Z,5.03
2018-07-17T05:58:56.984Z,4.90
2018-07-17T06:01:28.578Z,5.93
2018-07-17T06:04:00.113Z,6.23
2018-07-17T06:06:31.808Z,4.60
2018-07-17T06:09:03.578Z,4.87
2018-07-17T06:11:35.170Z,4.80
2018-07-17T06:14:07.292Z,5.37
2018-07-17T06:16:38.810Z,6.00
2018-07-17T06:19:10.382Z,7.17
2018-07-17T06:21:42.105Z,10.30
2018-07-17T06:24:14.146Z,6.27
2018-07-17T06:26:45.715Z,7.00
2018-07-17T06:29:17.556Z,8.93
2018-07-17T06:31:49.097Z,11.97
2018-07-17T06:34:20.827Z,10.00
2018-07-17T06:36:52.418Z,8.67
2018-07-17T06:39:23.582Z,8.60
2018-07-17T06:41:54.992Z,6.63
2018-07-17T06:44:26.927Z,7.53
2018-07-17T06:46:58.764Z,7.40
2018-07-17T06:49:30.826Z,8.40
2018-07-17T06:52:02.363Z,7.60
2018-07-17T06:54:33.528Z,10.53
2018-07-17T06:57:05.193Z,7.17
2018-07-17T06:59:36.716Z,8.90
2018-07-17T07:02:08.205Z,7.40
2018-07-17T07:04:40.112Z,7.67
2018-07-17T07:07:11.727Z,7.07
2018-07-17T07:09:43.685Z,6.47
2018-07-17T07:12:15.332Z,7.27
2018-07-17T07:14:46.917Z,6.93
2018-07-17T07:17:18.697Z,7.07
2018-07-17T07:19:50.570Z,6.83
2018-07-17T07:22:22.141Z,6.83
2018-07-17T07:24:53.708Z,5.80
2018-07-17T07:27:25.417Z,5.90
2018-07-17T07:29:56.980Z,6.70
2018-07-17T07:32:28.921Z,6.03
2018-07-17T07:35:00.475Z,5.50
2018-07-17T07:37:32.512Z,5.43
2018-07-17T07:40:04.645Z,9.60
2018-07-17T07:42:36.469Z,7.47
2018-07-17T07:45:08.057Z,5.70
2018-07-17T07:47:39.648Z,6.00
2018-07-17T07:50:11.761Z,5.83
2018-07-17T07:52:43.219Z,5.77
2018-07-17T07:55:14.705Z,5.70
2018-07-17T07:57:46.330Z,5.53
2018-07-17T08:00:18.320Z,6.10
2018-07-17T08:02:49.964Z,5.83
2018-07-17T08:05:21.185Z,4.97
2018-07-17T08:07:52.708Z,5.97
2018-07-17T08:10:24.187Z,5.53
2018-07-17T08:12:56.064Z,5.50
2018-07-17T08:15:27.690Z,5.83
2018-07-17T08:17:59.256Z,5.07
2018-07-17T08:20:30.801Z,6.83
2018-07-17T08:23:02.825Z,8.17
2018-07-17T08:27:03.384Z,6.93
2018-07-17T08:29:34.920Z,6.77
2018-07-17T08:32:06.933Z,6.23
2018-07-17T08:34:38.492Z,7.60
2018-07-17T08:37:10.226Z,6.63
2018-07-17T08:39:41.900Z,6.53
2018-07-17T08:42:13.583Z,7.13
2018-07-17T08:44:45.018Z,7.40
2018-07-17T08:47:22.143Z,7.77
2018-07-17T08:49:53.815Z,7.73
2018-07-17T08:52:25.073Z,6.40
2018-07-17T08:54:56.045Z,6.47
2018-07-17T08:57:27.296Z,7.37
2018-07-17T08:59:59.035Z,7.10
2018-07-17T09:02:31.088Z,8.37
2018-07-17T09:05:03.056Z,8.03
2018-07-17T09:07:34.966Z,11.10
2018-07-17T09:10:07.352Z,8.33
2018-07-17T09:12:39.055Z,7.57
2018-07-17T09:15:11.549Z,7.90
2018-07-17T09:17:43.263Z,8.47
2018-07-17T09:20:15.557Z,8.38
2018-07-17T09:22:47.152Z,8.50
2018-07-17T09:25:19.371Z,10.05
2018-07-17T09:27:51.875Z,8.07
2018-07-17T09:30:24.481Z,8.65
2018-07-17T09:32:56.133Z,9.23
2018-07-17T09:35:29.118Z,9.45
2018-07-17T09:38:01.168Z,9.73
2018-07-17T09:40:33.347Z,10.00
2018-07-17T09:43:06.128Z,8.15
2018-07-17T09:45:38.516Z,9.05
2018-07-17T09:48:10.519Z,7.92
2018-07-17T09:50:42.862Z,9.10
2018-07-17T09:53:14.876Z,9.23
2018-07-17T09:55:46.883Z,8.50
2018-07-17T09:58:19.092Z,10.45
2018-07-17T10:00:56.426Z,8.95
2018-07-17T10:03:28.558Z,7.45
2018-07-17T10:06:00.826Z,7.83
2018-07-17T10:08:33.293Z,7.62
2018-07-17T10:11:05.784Z,7.65
2018-07-17T10:13:38.257Z,7.05
2018-07-17T10:16:10.514Z,6.85
2018-07-17T10:18:42.603Z,6.87
2018-07-17T10:21:14.780Z,7.50
2018-07-17T10:23:47.052Z,5.15
2018-07-17T10:26:19.270Z,5.08
2018-07-17T10:28:51.738Z,4.50
2018-07-17T10:31:23.911Z,4.70
2018-07-17T10:33:56.327Z,4.30
2018-07-17T10:36:28.994Z,4.30
2018-07-17T10:39:01.257Z,4.20
2018-07-17T10:41:33.595Z,4.10
2018-07-17T10:44:05.947Z,4.00
2018-07-17T10:46:38.861Z,3.72
2018-07-17T10:49:11.011Z,4.62
2018-07-17T10:51:43.100Z,5.00
2018-07-17T10:54:15.703Z,3.58
2018-07-17T10:56:48.131Z,3.70
2018-07-17T10:59:20.316Z,4.00
2018-07-17T11:01:52.549Z,3.37
2018-07-17T11:04:24.637Z,3.58
2018-07-17T11:06:56.971Z,4.53
2018-07-17T11:09:28.720Z,3.02
2018-07-17T11:12:00.192Z,6.12
2018-07-17T11:14:32.194Z,3.60
2018-07-17T11:17:04.336Z,3.55
2018-07-17T11:19:36.110Z,4.20
2018-07-17T11:22:08.602Z,4.17
2018-07-17T11:24:40.787Z,3.55
2018-07-17T11:27:12.916Z,3.42
2018-07-17T11:29:45.003Z,4.15
2018-07-17T11:32:17.468Z,8.75
2018-07-17T11:34:49.397Z,3.25
2018-07-17T11:37:21.501Z,3.90
2018-07-17T11:39:53.797Z,8.18
2018-07-17T11:42:27.381Z,2.72
2018-07-17T11:45:00.505Z,2.17
2018-07-17T11:47:33.813Z,2.35
2018-07-17T11:50:06.889Z,2.72
2018-07-17T11:52:39.135Z,3.22
2018-07-17T11:55:11.329Z,2.27
2018-07-17T11:57:43.589Z,3.60
2018-07-17T12:00:15.911Z,2.15
2018-07-17T12:02:48.411Z,2.40
2018-07-17T12:05:20.801Z,2.58
2018-07-17T12:07:52.973Z,2.10
2018-07-17T12:10:25.495Z,2.20
2018-07-17T12:12:57.300Z,2.13
2018-07-17T12:15:29.537Z,2.62
2018-07-17T12:18:01.420Z,1.72
2018-07-17T12:20:34.136Z,2.77
2018-07-17T12:23:06.099Z,3.57
2018-07-17T12:25:38.150Z,1.90
2018-07-17T12:28:10.497Z,3.90
2018-07-17T12:30:42.902Z,2.03
2018-07-17T12:33:14.894Z,3.47
2018-07-17T12:35:49.845Z,4.05
2018-07-17T12:38:21.584Z,3.17
2018-07-17T12:40:53.825Z,4.95
2018-07-17T12:43:25.945Z,2.52
2018-07-17T12:45:58.100Z,5.12
2018-07-17T12:48:29.816Z,1.92
2018-07-17T12:51:02.486Z,3.65
2018-07-17T12:53:34.677Z,2.12
2018-07-17T12:56:07.130Z,3.37
2018-07-17T12:58:39.932Z,2.45
2018-07-17T13:01:12.251Z,3.70
2018-07-17T13:03:44.424Z,3.08
2018-07-17T13:06:16.525Z,2.67
2018-07-17T13:08:48.648Z,3.20
2018-07-17T13:11:21.272Z,2.27
2018-07-17T13:13:53.612Z,2.80
2018-07-17T13:16:25.963Z,2.20
2018-07-17T13:18:58.442Z,2.02
2018-07-17T13:21:30.991Z,2.08
2018-07-17T13:24:10.353Z,3.22
2018-07-17T13:26:42.407Z,1.80
2018-07-17T13:29:14.590Z,1.72
2018-07-17T13:31:46.836Z,2.37
2018-07-17T13:34:19.341Z,1.65
2018-07-17T13:36:51.567Z,1.67
2018-07-17T13:39:23.865Z,1.70
2018-07-17T13:41:56.058Z,2.77
2018-07-17T13:44:28.153Z,3.05
2018-07-17T13:47:00.436Z,9.25
2018-07-17T13:49:32.568Z,3.58
2018-07-17T13:52:05.086Z,2.10
2018-07-17T13:54:37.340Z,3.58
2018-07-17T13:57:10.552Z,2.17
2018-07-17T13:59:42.683Z,2.40
2018-07-17T14:02:14.923Z,1.72
2018-07-17T14:04:47.685Z,4.53
2018-07-17T14:07:19.673Z,2.83
2018-07-17T14:09:51.927Z,2.27
2018-07-17T14:12:24.061Z,1.60
2018-07-17T14:14:56.516Z,1.85
2018-07-17T14:17:29.176Z,2.72
2018-07-17T14:20:01.819Z,3.05
2018-07-17T14:22:33.995Z,2.60
2018-07-17T14:25:06.442Z,1.90
2018-07-17T14:27:38.590Z,1.90
2018-07-17T14:30:11.054Z,2.17
2018-07-17T14:32:43.501Z,3.00
2018-07-17T14:35:15.638Z,1.82
2018-07-17T14:37:48.102Z,2.25
2018-07-17T14:40:21.925Z,1.95
2018-07-17T14:42:54.249Z,2.83
2018-07-17T14:45:26.435Z,3.17
2018-07-17T14:47:58.766Z,1.98
2018-07-17T14:50:31.427Z,2.10
2018-07-17T14:53:03.938Z,2.05
2018-07-17T14:55:36.642Z,1.77
2018-07-17T14:58:08.913Z,2.02
2018-07-17T15:00:41.571Z,3.77
2018-07-17T15:03:14.106Z,2.05
2018-07-17T15:05:46.175Z,2.20
2018-07-17T15:08:18.291Z,2.45
2018-07-17T15:10:50.797Z,2.83
2018-07-17T15:13:23.200Z,3.80
2018-07-17T15:15:55.682Z,2.25
2018-07-17T15:18:28.353Z,3.47
2018-07-17T15:21:00.547Z,4.28
2018-07-17T15:23:32.897Z,4.25
2018-07-17T15:26:05.598Z,3.42
2018-07-17T15:28:38.369Z,3.67
2018-07-17T15:31:10.756Z,3.42
2018-07-17T15:33:42.885Z,4.03
2018-07-17T15:36:15.080Z,3.30
2018-07-17T15:38:47.421Z,4.40
2018-07-17T15:41:19.781Z,3.30
2018-07-17T15:43:52.305Z,3.62
2018-07-17T15:46:24.506Z,4.65
2018-07-17T15:48:56.723Z,3.70
2018-07-17T15:51:28.925Z,4.25
2018-07-17T15:54:01.365Z,3.55
2018-07-17T15:56:33.738Z,3.92
2018-07-17T15:59:06.582Z,4.40
2018-07-17T16:01:38.770Z,5.40
2018-07-17T16:04:11.117Z,4.97
2018-07-17T16:06:43.358Z,4.03
2018-07-17T16:09:15.522Z,3.85
2018-07-17T16:11:47.795Z,3.80
2018-07-17T16:14:20.377Z,4.53
2018-07-17T16:16:52.240Z,4.12
2018-07-17T16:19:24.419Z,4.55
2018-07-17T16:21:56.699Z,5.20
2018-07-17T16:24:29.458Z,4.80
2018-07-17T16:27:01.694Z,5.30
2018-07-17T16:29:33.975Z,4.58
2018-07-17T16:32:06.031Z,4.70
2018-07-17T16:34:38.017Z,4.47
2018-07-17T16:37:10.234Z,4.80
2018-07-17T16:39:42.464Z,5.05
2018-07-17T16:42:14.721Z,6.55
2018-07-17T16:44:47.235Z,18.95
2018-07-17T16:47:19.482Z,5.67
2018-07-17T16:49:51.831Z,4.45
2018-07-17T16:52:23.690Z,4.15
2018-07-17T16:54:55.690Z,4.72
2018-07-17T16:57:27.936Z,3.98
2018-07-17T17:00:00.042Z,3.90
2018-07-17T17:02:32.115Z,3.77
2018-07-17T17:05:04.409Z,3.17
2018-07-17T17:07:36.492Z,4.12
2018-07-17T17:10:09.019Z,4.10
2018-07-17T17:12:41.230Z,4.05
2018-07-17T17:15:13.541Z,6.08
2018-07-17T17:17:45.719Z,11.57
2018-07-17T17:20:18.128Z,17.70
2018-07-17T17:22:50.431Z,7.97
2018-07-17T17:25:22.637Z,5.53
2018-07-17T17:27:55.010Z,9.55
2018-07-17T17:30:27.178Z,8.23
2018-07-17T17:32:59.376Z,5.28
2018-07-17T17:35:31.977Z,4.30
2018-07-17T17:38:04.205Z,4.05
2018-07-17T17:40:36.437Z,4.03
2018-07-17T17:43:08.699Z,5.67
2018-07-17T17:45:41.045Z,4.60
2018-07-17T17:48:13.223Z,3.70
2018-07-17T17:50:45.545Z,3.30
2018-07-17T17:53:17.818Z,6.28
2018-07-17T17:55:50.105Z,9.10
2018-07-17T17:58:22.683Z,9.95
2018-07-17T18:00:55.472Z,8.48
2018-07-17T18:03:27.654Z,4.62
2018-07-17T18:05:59.980Z,5.12
2018-07-17T18:08:32.468Z,4.03
2018-07-17T18:11:04.901Z,5.17
2018-07-17T18:13:36.835Z,3.80
2018-07-17T18:16:09.078Z,3.98
2018-07-17T18:18:41.165Z,3.95
2018-07-17T18:21:13.371Z,6.03
2018-07-17T18:23:45.559Z,4.35
2018-07-17T18:26:17.587Z,3.70
2018-07-17T18:28:49.660Z,3.55
2018-07-17T18:31:21.757Z,4.80
2018-07-17T18:33:53.829Z,4.47
2018-07-17T18:36:25.487Z,4.35
2018-07-17T18:38:57.542Z,6.67
2018-07-17T18:41:29.464Z,4.75
2018-07-17T18:44:01.391Z,3.83
2018-07-17T18:46:33.553Z,6.47
2018-07-17T18:49:05.598Z,3.30
2018-07-17T18:51:37.562Z,4.40
2018-07-17T18:54:09.273Z,3.13
2018-07-17T18:56:40.990Z,4.67
2018-07-17T18:59:13.528Z,4.22
2018-07-17T19:01:45.422Z,4.63
2018-07-17T19:04:17.233Z,7.00
2018-07-17T19:06:48.993Z,4.07
2018-07-17T19:09:20.596Z,4.87
2018-07-17T19:11:52.261Z,4.13
2018-07-17T19:14:24.127Z,2.70
2018-07-17T19:16:55.961Z,4.77
2018-07-17T19:19:27.778Z,2.27
2018-07-17T19:21:59.374Z,5.27
2018-07-17T19:24:31.123Z,4.30
2018-07-17T19:27:02.744Z,3.93
2018-07-17T19:29:34.416Z,5.30
2018-07-17T19:32:06.110Z,3.27
2018-07-17T19:34:38.072Z,4.00
2018-07-17T19:37:09.641Z,3.10
2018-07-17T19:39:41.371Z,3.17
2018-07-17T19:42:13.315Z,4.17
2018-07-17T19:44:44.830Z,2.17
2018-07-17T19:47:16.606Z,2.90
2018-07-17T19:49:48.465Z,1.90
2018-07-17T19:52:20.204Z,3.20
2018-07-17T19:54:51.699Z,4.67
2018-07-17T19:57:23.213Z,1.77
2018-07-17T19:59:54.761Z,1.83
2018-07-17T20:02:26.545Z,3.57
2018-07-17T20:04:58.227Z,3.60
2018-07-17T20:07:29.993Z,2.70
2018-07-17T20:10:02.153Z,4.80
2018-07-17T20:12:34.214Z,2.77
2018-07-17T20:15:06.795Z,1.47
2018-07-17T20:17:38.292Z,2.30
2018-07-17T20:20:10.521Z,1.57
2018-07-17T20:22:42.149Z,3.70
2018-07-17T20:25:14.146Z,3.47
2018-07-17T20:27:45.839Z,5.33
2018-07-17T20:30:17.399Z,1.70
2018-07-17T20:32:49.048Z,3.00
2018-07-17T20:35:21.157Z,4.07
2018-07-17T20:37:59.352Z,3.03
2018-07-17T20:40:41.072Z,2.27
2018-07-17T20:43:13.267Z,2.57
2018-07-17T20:45:44.781Z,2.30
2018-07-17T20:48:16.371Z,2.73
2018-07-17T20:50:48.397Z,1.83
2018-07-17T20:53:20.071Z,2.60
2018-07-17T20:55:52.531Z,1.70
2018-07-17T20:58:24.286Z,1.73
2018-07-17T21:00:55.813Z,2.57
2018-07-17T21:03:27.394Z,3.10
2018-07-17T21:05:58.980Z,3.33
2018-07-17T21:08:30.579Z,1.57
2018-07-17T21:11:03.006Z,1.83
2018-07-17T21:13:34.260Z,1.80
2018-07-17T21:16:07.120Z,2.07
2018-07-17T21:18:39.038Z,2.27
2018-07-17T21:21:10.763Z,4.70
2018-07-17T21:23:42.698Z,1.67
2018-07-17T21:26:14.374Z,2.07
2018-07-17T21:28:46.159Z,3.60
2018-07-17T21:31:17.657Z,1.63
2018-07-17T21:33:49.368Z,2.40
2018-07-17T21:36:20.910Z,2.83
2018-07-17T21:38:52.621Z,2.77
2018-07-17T21:41:24.371Z,2.20
2018-07-17T21:43:55.944Z,4.53
2018-07-17T21:46:27.442Z,2.17
2018-07-17T21:48:58.964Z,2.60
2018-07-17T21:51:30.686Z,3.97
2018-07-17T21:54:02.374Z,2.93
2018-07-17T21:56:34.046Z,1.57
2018-07-17T21:59:05.406Z,3.03
2018-07-17T22:01:37.747Z,2.03
2018-07-17T22:04:09.159Z,2.67
2018-07-17T22:06:40.753Z,3.47
2018-07-17T22:09:13.727Z,3.83
2018-07-17T22:11:45.292Z,4.60
2018-07-17T22:14:17.201Z,3.70
2018-07-17T22:16:49.218Z,3.77
2018-07-17T22:19:20.783Z,3.43
2018-07-17T22:21:53.269Z,2.10
2018-07-17T22:24:25.326Z,2.90
2018-07-17T22:26:56.927Z,3.37
2018-07-17T22:29:28.607Z,3.00
2018-07-17T22:32:00.288Z,2.40
2018-07-17T22:34:31.856Z,1.97
2018-07-17T22:37:03.472Z,3.00
2018-07-17T22:39:35.128Z,3.27
2018-07-17T22:42:07.524Z,5.77
2018-07-17T22:44:39.467Z,2.00
2018-07-17T22:47:11.078Z,3.83
2018-07-17T22:49:42.676Z,2.23
2018-07-17T22:52:14.163Z,2.27
2018-07-17T22:54:46.158Z,3.63
2018-07-17T22:57:18.049Z,2.80
2018-07-17T22:59:49.613Z,2.20
2018-07-17T23:02:21.726Z,1.97
2018-07-17T23:04:53.369Z,2.43
2018-07-17T23:07:25.279Z,3.17
2018-07-17T23:09:56.392Z,3.90
2018-07-17T23:12:27.714Z,2.00
2018-07-17T23:14:59.595Z,2.20
2018-07-17T23:17:31.393Z,2.50
2018-07-17T23:20:03.260Z,2.70
2018-07-17T23:22:54.104Z,2.83
2018-07-17T23:25:26.869Z,2.20
2018-07-17T23:27:59.306Z,2.30
2018-07-17T23:30:30.984Z,3.67
2018-07-17T23:33:02.455Z,2.30
2018-07-17T23:35:34.066Z,2.87
2018-07-17T23:38:05.760Z,2.43
2018-07-17T23:40:37.501Z,2.13
2018-07-17T23:43:09.112Z,2.43
2018-07-17T23:45:40.669Z,3.27
2018-07-17T23:48:12.349Z,2.03
2018-07-17T23:50:44.005Z,3.33
2018-07-17T23:53:15.686Z,3.83
2018-07-17T23:55:47.402Z,2.40
2018-07-17T23:58:20.721Z,2.70
